sensor_id;sensor_type;location;lat;lon;timestamp;pressure;altitude;pressure_sealevel;temperature;humidity
31346;BME280;21711;49.708;18.568;2023-02-04T00:00:19;96694.03;;;2.28;100.00
31346;BME280;21711;49.708;18.568;2023-02-04T00:02:47;96709.09;;;2.38;100.00
31346;BME280;21711;49.708;18.568;2023-02-04T00:05:16;96710.22;;;2.42;100.00
31346;BME280;21711;49.708;18.568;2023-02-04T00:07:44;96712.06;;;2.29;100.00
31346;BME280;21711;49.708;18.568;2023-02-04T00:10:11;96710.34;;;2.35;100.00
31346;BME280;21711;49.708;18.568;2023-02-04T00:12:39;96704.16;;;2.24;100.00
31346;BME280;21711;49.708;18.568;2023-02-04T00:15:06;96701.44;;;2.19;100.00
31346;BME280;21711;49.708;18.568;2023-02-04T00:17:33;96703.78;;;2.32;100.00
31346;BME280;21711;49.708;18.568;2023-02-04T00:20:01;96696.38;;;2.41;100.00
31346;BME280;21711;49.708;18.568;2023-02-04T00:22:28;96706.22;;;2.51;100.00
31346;BME280;21711;49.708;18.568;2023-02-04T00:24:56;96699.28;;;2.57;100.00
31346;BME280;21711;49.708;18.568;2023-02-04T00:27:23;96695.59;;;2.41;100.00
31346;BME280;21711;49.708;18.568;2023-02-04T00:29:50;96707.00;;;2.52;100.00
31346;BME280;21711;49.708;18.568;2023-02-04T00:32:17;96714.44;;;2.60;100.00
31346;BME280;21711;49.708;18.568;2023-02-04T00:34:45;96711.28;;;2.58;100.00
31346;BME280;21711;49.708;18.568;2023-02-04T00:37:13;96710.63;;;2.50;100.00
31346;BME280;21711;49.708;18.568;2023-02-04T00:39:40;96713.19;;;2.62;100.00
31346;BME280;21711;49.708;18.568;2023-02-04T00:42:07;96699.50;;;2.55;100.00
31346;BME280;21711;49.708;18.568;2023-02-04T00:44:35;96717.34;;;2.46;100.00
31346;BME280;21711;49.708;18.568;2023-02-04T00:47:03;96707.97;;;2.62;100.00
31346;BME280;21711;49.708;18.568;2023-02-04T00:49:33;96704.00;;;2.60;100.00
31346;BME280;21711;49.708;18.568;2023-02-04T00:52:00;96694.00;;;2.69;100.00
31346;BME280;21711;49.708;18.568;2023-02-04T00:54:28;96702.06;;;2.67;100.00
31346;BME280;21711;49.708;18.568;2023-02-04T00:56:55;96702.47;;;2.47;100.00
31346;BME280;21711;49.708;18.568;2023-02-04T00:59:23;96714.38;;;2.55;100.00
31346;BME280;21711;49.708;18.568;2023-02-04T01:02:15;96699.00;;;2.58;100.00
31346;BME280;21711;49.708;18.568;2023-02-04T01:04:44;96696.28;;;2.36;100.00
31346;BME280;21711;49.708;18.568;2023-02-04T01:07:11;96690.41;;;2.29;100.00
31346;BME280;21711;49.708;18.568;2023-02-04T01:09:39;96690.59;;;2.39;100.00
31346;BME280;21711;49.708;18.568;2023-02-04T01:12:06;96676.25;;;2.54;100.00
31346;BME280;21711;49.708;18.568;2023-02-04T01:14:34;96675.44;;;2.53;100.00
31346;BME280;21711;49.708;18.568;2023-02-04T01:17:01;96681.47;;;2.54;100.00
31346;BME280;21711;49.708;18.568;2023-02-04T01:19:28;96685.69;;;2.43;100.00
31346;BME280;21711;49.708;18.568;2023-02-04T01:21:55;96685.34;;;2.22;100.00
31346;BME280;21711;49.708;18.568;2023-02-04T01:24:23;96681.28;;;2.43;100.00
31346;BME280;21711;49.708;18.568;2023-02-04T01:27:09;96681.06;;;2.45;100.00
31346;BME280;21711;49.708;18.568;2023-02-04T01:29:36;96682.34;;;2.30;100.00
31346;BME280;21711;49.708;18.568;2023-02-04T01:32:03;96673.16;;;2.28;100.00
31346;BME280;21711;49.708;18.568;2023-02-04T01:34:31;96664.66;;;2.32;100.00
31346;BME280;21711;49.708;18.568;2023-02-04T01:36:58;96666.00;;;2.35;100.00
31346;BME280;21711;49.708;18.568;2023-02-04T01:39:25;96653.50;;;2.37;100.00
31346;BME280;21711;49.708;18.568;2023-02-04T01:41:53;96667.34;;;2.38;100.00
31346;BME280;21711;49.708;18.568;2023-02-04T01:44:20;96666.69;;;2.30;100.00
31346;BME280;21711;49.708;18.568;2023-02-04T01:46:47;96661.47;;;2.30;100.00
31346;BME280;21711;49.708;18.568;2023-02-04T01:49:16;96658.75;;;2.25;100.00
31346;BME280;21711;49.708;18.568;2023-02-04T01:51:43;96660.03;;;2.22;100.00
31346;BME280;21711;49.708;18.568;2023-02-04T01:54:11;96656.44;;;2.12;100.00
31346;BME280;21711;49.708;18.568;2023-02-04T01:56:45;96645.97;;;2.23;100.00
31346;BME280;21711;49.708;18.568;2023-02-04T01:59:17;96647.38;;;2.14;100.00
31346;BME280;21711;49.708;18.568;2023-02-04T02:01:48;96636.63;;;2.28;100.00
31346;BME280;21711;49.708;18.568;2023-02-04T02:04:38;96629.97;;;2.20;100.00
31346;BME280;21711;49.708;18.568;2023-02-04T02:07:05;96615.41;;;2.07;100.00
31346;BME280;21711;49.708;18.568;2023-02-04T02:09:33;96617.50;;;2.22;100.00
31346;BME280;21711;49.708;18.568;2023-02-04T02:12:01;96619.63;;;2.25;100.00
31346;BME280;21711;49.708;18.568;2023-02-04T02:14:29;96655.50;;;2.18;100.00
31346;BME280;21711;49.708;18.568;2023-02-04T02:16:56;96695.88;;;2.27;100.00
31346;BME280;21711;49.708;18.568;2023-02-04T02:19:30;96699.28;;;2.16;100.00
31346;BME280;21711;49.708;18.568;2023-02-04T02:22:12;96758.53;;;2.15;100.00
31346;BME280;21711;49.708;18.568;2023-02-04T02:24:41;96763.53;;;2.05;100.00
31346;BME280;21711;49.708;18.568;2023-02-04T02:27:10;96742.19;;;2.08;100.00
31346;BME280;21711;49.708;18.568;2023-02-04T02:29:40;96760.59;;;1.77;100.00
31346;BME280;21711;49.708;18.568;2023-02-04T02:32:10;96758.91;;;1.71;100.00
31346;BME280;21711;49.708;18.568;2023-02-04T02:34:39;96765.69;;;1.72;100.00
31346;BME280;21711;49.708;18.568;2023-02-04T02:37:08;96752.00;;;1.77;100.00
31346;BME280;21711;49.708;18.568;2023-02-04T02:39:37;96769.34;;;1.59;100.00
31346;BME280;21711;49.708;18.568;2023-02-04T02:42:05;96783.69;;;1.38;100.00
31346;BME280;21711;49.708;18.568;2023-02-04T02:44:33;96795.38;;;1.35;100.00
31346;BME280;21711;49.708;18.568;2023-02-04T02:47:01;96790.59;;;1.32;100.00
31346;BME280;21711;49.708;18.568;2023-02-04T02:49:30;96793.75;;;1.22;100.00
31346;BME280;21711;49.708;18.568;2023-02-04T02:51:58;96794.09;;;1.26;100.00
31346;BME280;21711;49.708;18.568;2023-02-04T02:54:30;96795.31;;;1.11;100.00
31346;BME280;21711;49.708;18.568;2023-02-04T02:57:01;96808.47;;;1.16;100.00
31346;BME280;21711;49.708;18.568;2023-02-04T02:59:29;96805.56;;;1.25;100.00
31346;BME280;21711;49.708;18.568;2023-02-04T03:02:01;96812.75;;;1.11;100.00
31346;BME280;21711;49.708;18.568;2023-02-04T03:04:38;96806.94;;;0.97;100.00
31346;BME280;21711;49.708;18.568;2023-02-04T03:07:09;96806.34;;;0.95;100.00
31346;BME280;21711;49.708;18.568;2023-02-04T03:09:38;96796.97;;;0.94;100.00
31346;BME280;21711;49.708;18.568;2023-02-04T03:12:05;96800.59;;;0.93;100.00
31346;BME280;21711;49.708;18.568;2023-02-04T03:14:35;96795.72;;;0.96;100.00
31346;BME280;21711;49.708;18.568;2023-02-04T03:17:07;96805.47;;;1.01;100.00
31346;BME280;21711;49.708;18.568;2023-02-04T03:19:36;96804.47;;;1.02;100.00
31346;BME280;21711;49.708;18.568;2023-02-04T03:22:04;96792.69;;;0.99;100.00
31346;BME280;21711;49.708;18.568;2023-02-04T03:24:32;96800.06;;;1.02;100.00
31346;BME280;21711;49.708;18.568;2023-02-04T03:27:02;96791.91;;;1.11;100.00
31346;BME280;21711;49.708;18.568;2023-02-04T03:29:29;96798.69;;;1.00;100.00
31346;BME280;21711;49.708;18.568;2023-02-04T03:31:57;96789.19;;;1.05;100.00
31346;BME280;21711;49.708;18.568;2023-02-04T03:34:26;96797.50;;;0.84;100.00
31346;BME280;21711;49.708;18.568;2023-02-04T03:36:53;96798.16;;;0.79;100.00
31346;BME280;21711;49.708;18.568;2023-02-04T03:39:20;96811.84;;;0.74;100.00
31346;BME280;21711;49.708;18.568;2023-02-04T03:41:48;96800.06;;;0.72;100.00
31346;BME280;21711;49.708;18.568;2023-02-04T03:44:15;96794.94;;;0.65;100.00
31346;BME280;21711;49.708;18.568;2023-02-04T03:46:42;96808.25;;;0.57;100.00
31346;BME280;21711;49.708;18.568;2023-02-04T03:49:13;96818.94;;;0.67;100.00
31346;BME280;21711;49.708;18.568;2023-02-04T03:51:40;96831.59;;;0.63;100.00
31346;BME280;21711;49.708;18.568;2023-02-04T03:54:07;96827.28;;;0.38;100.00
31346;BME280;21711;49.708;18.568;2023-02-04T03:56:34;96824.47;;;0.71;100.00
31346;BME280;21711;49.708;18.568;2023-02-04T03:59:02;96834.53;;;0.67;100.00
31346;BME280;21711;49.708;18.568;2023-02-04T04:01:29;96840.09;;;0.71;100.00
31346;BME280;21711;49.708;18.568;2023-02-04T04:03:57;96853.66;;;0.42;100.00
31346;BME280;21711;49.708;18.568;2023-02-04T04:06:24;96851.03;;;0.61;100.00
31346;BME280;21711;49.708;18.568;2023-02-04T04:08:51;96855.38;;;0.67;100.00
31346;BME280;21711;49.708;18.568;2023-02-04T04:11:18;96855.44;;;0.42;100.00
31346;BME280;21711;49.708;18.568;2023-02-04T04:13:47;96868.91;;;0.57;100.00
31346;BME280;21711;49.708;18.568;2023-02-04T04:16:15;96874.47;;;0.61;100.00
31346;BME280;21711;49.708;18.568;2023-02-04T04:18:42;96880.09;;;0.58;100.00
31346;BME280;21711;49.708;18.568;2023-02-04T04:21:09;96877.22;;;0.47;100.00
31346;BME280;21711;49.708;18.568;2023-02-04T04:23:37;96889.19;;;0.30;100.00
31346;BME280;21711;49.708;18.568;2023-02-04T04:26:04;96893.38;;;0.31;100.00
31346;BME280;21711;49.708;18.568;2023-02-04T04:28:31;96897.50;;;0.20;100.00
31346;BME280;21711;49.708;18.568;2023-02-04T04:30:58;96914.09;;;0.19;100.00
31346;BME280;21711;49.708;18.568;2023-02-04T04:33:26;96904.47;;;0.45;100.00
31346;BME280;21711;49.708;18.568;2023-02-04T04:35:56;96930.97;;;0.09;100.00
31346;BME280;21711;49.708;18.568;2023-02-04T04:38:23;96941.47;;;0.21;100.00
31346;BME280;21711;49.708;18.568;2023-02-04T04:40:51;96955.59;;;0.07;100.00
31346;BME280;21711;49.708;18.568;2023-02-04T04:43:18;96952.69;;;0.22;100.00
31346;BME280;21711;49.708;18.568;2023-02-04T04:45:45;96986.69;;;0.20;100.00
31346;BME280;21711;49.708;18.568;2023-02-04T04:48:13;96995.44;;;0.01;100.00
31346;BME280;21711;49.708;18.568;2023-02-04T04:50:40;96999.81;;;0.07;100.00
31346;BME280;21711;49.708;18.568;2023-02-04T04:53:07;97021.63;;;0.06;100.00
31346;BME280;21711;49.708;18.568;2023-02-04T04:55:37;97052.34;;;0.22;100.00
31346;BME280;21711;49.708;18.568;2023-02-04T04:58:06;97085.97;;;0.17;100.00
31346;BME280;21711;49.708;18.568;2023-02-04T05:00:34;97074.75;;;0.17;100.00
31346;BME280;21711;49.708;18.568;2023-02-04T05:03:01;97088.31;;;0.25;100.00
31346;BME280;21711;49.708;18.568;2023-02-04T05:05:28;97106.16;;;0.22;100.00
31346;BME280;21711;49.708;18.568;2023-02-04T05:07:56;97130.75;;;-0.27;100.00
31346;BME280;21711;49.708;18.568;2023-02-04T05:10:23;97128.94;;;-0.19;100.00
31346;BME280;21711;49.708;18.568;2023-02-04T05:12:50;97138.16;;;-0.23;100.00
31346;BME280;21711;49.708;18.568;2023-02-04T05:15:18;97171.78;;;-0.35;100.00
31346;BME280;21711;49.708;18.568;2023-02-04T05:17:45;97173.56;;;-0.36;100.00
31346;BME280;21711;49.708;18.568;2023-02-04T05:20:12;97225.78;;;-0.37;100.00
31346;BME280;21711;49.708;18.568;2023-02-04T05:22:39;97205.97;;;-0.38;100.00
31346;BME280;21711;49.708;18.568;2023-02-04T05:25:07;97241.38;;;-0.37;100.00
31346;BME280;21711;49.708;18.568;2023-02-04T05:27:34;97249.56;;;-0.47;100.00
31346;BME280;21711;49.708;18.568;2023-02-04T05:30:01;97263.16;;;-0.59;100.00
31346;BME280;21711;49.708;18.568;2023-02-04T05:32:29;97263.38;;;-0.54;100.00
31346;BME280;21711;49.708;18.568;2023-02-04T05:34:56;97270.16;;;-0.46;100.00
31346;BME280;21711;49.708;18.568;2023-02-04T05:37:23;97303.31;;;-0.48;100.00
31346;BME280;21711;49.708;18.568;2023-02-04T05:39:50;97315.53;;;-0.55;100.00
31346;BME280;21711;49.708;18.568;2023-02-04T05:42:18;97325.69;;;-0.67;100.00
31346;BME280;21711;49.708;18.568;2023-02-04T05:44:45;97334.28;;;-0.60;100.00
31346;BME280;21711;49.708;18.568;2023-02-04T05:47:12;97358.28;;;-0.58;100.00
31346;BME280;21711;49.708;18.568;2023-02-04T05:49:39;97358.88;;;-0.56;100.00
31346;BME280;21711;49.708;18.568;2023-02-04T05:52:07;97378.44;;;-0.60;100.00
31346;BME280;21711;49.708;18.568;2023-02-04T05:54:34;97401.22;;;-0.69;100.00
31346;BME280;21711;49.708;18.568;2023-02-04T05:57:01;97387.84;;;-0.72;100.00
31346;BME280;21711;49.708;18.568;2023-02-04T05:59:28;97406.59;;;-0.70;100.00
31346;BME280;21711;49.708;18.568;2023-02-04T06:01:56;97419.81;;;-0.65;100.00
31346;BME280;21711;49.708;18.568;2023-02-04T06:04:23;97441.63;;;-0.52;100.00
31346;BME280;21711;49.708;18.568;2023-02-04T06:06:50;97453.69;;;-0.94;100.00
31346;BME280;21711;49.708;18.568;2023-02-04T06:09:18;97471.31;;;-0.82;100.00
31346;BME280;21711;49.708;18.568;2023-02-04T06:11:45;97483.69;;;-0.84;100.00
31346;BME280;21711;49.708;18.568;2023-02-04T06:14:15;97506.69;;;-0.74;100.00
31346;BME280;21711;49.708;18.568;2023-02-04T06:16:42;97520.66;;;-0.82;100.00
31346;BME280;21711;49.708;18.568;2023-02-04T06:19:09;97522.66;;;-0.84;100.00
31346;BME280;21711;49.708;18.568;2023-02-04T06:21:36;97531.19;;;-0.90;100.00
31346;BME280;21711;49.708;18.568;2023-02-04T06:24:04;97554.53;;;-0.97;100.00
31346;BME280;21711;49.708;18.568;2023-02-04T06:26:31;97563.31;;;-0.98;100.00
31346;BME280;21711;49.708;18.568;2023-02-04T06:28:58;97568.50;;;-0.98;100.00
31346;BME280;21711;49.708;18.568;2023-02-04T06:31:26;97581.97;;;-0.88;100.00
31346;BME280;21711;49.708;18.568;2023-02-04T06:33:53;97610.63;;;-1.03;100.00
31346;BME280;21711;49.708;18.568;2023-02-04T06:36:20;97616.81;;;-1.04;100.00
31346;BME280;21711;49.708;18.568;2023-02-04T06:38:48;97621.66;;;-0.94;100.00
31346;BME280;21711;49.708;18.568;2023-02-04T06:41:17;97632.16;;;-1.02;100.00
31346;BME280;21711;49.708;18.568;2023-02-04T06:43:44;97630.44;;;-0.95;100.00
31346;BME280;21711;49.708;18.568;2023-02-04T06:46:11;97645.91;;;-1.09;100.00
31346;BME280;21711;49.708;18.568;2023-02-04T06:48:39;97660.84;;;-1.17;100.00
31346;BME280;21711;49.708;18.568;2023-02-04T06:51:06;97667.41;;;-0.93;100.00
31346;BME280;21711;49.708;18.568;2023-02-04T06:53:33;97672.56;;;-1.00;100.00
31346;BME280;21711;49.708;18.568;2023-02-04T06:56:01;97691.75;;;-0.94;100.00
31346;BME280;21711;49.708;18.568;2023-02-04T06:58:28;97690.75;;;-0.93;100.00
31346;BME280;21711;49.708;18.568;2023-02-04T07:00:55;97701.22;;;-0.86;100.00
31346;BME280;21711;49.708;18.568;2023-02-04T07:03:22;97704.25;;;-0.83;100.00
31346;BME280;21711;49.708;18.568;2023-02-04T07:05:50;97712.28;;;-0.77;100.00
31346;BME280;21711;49.708;18.568;2023-02-04T07:08:19;97715.38;;;-0.89;100.00
31346;BME280;21711;49.708;18.568;2023-02-04T07:10:47;97723.50;;;-0.99;100.00
31346;BME280;21711;49.708;18.568;2023-02-04T07:13:14;97738.84;;;-1.04;100.00
31346;BME280;21711;49.708;18.568;2023-02-04T07:15:42;97739.06;;;-1.21;100.00
31346;BME280;21711;49.708;18.568;2023-02-04T07:18:09;97751.34;;;-1.08;100.00
31346;BME280;21711;49.708;18.568;2023-02-04T07:20:36;97760.97;;;-1.08;100.00
31346;BME280;21711;49.708;18.568;2023-02-04T07:23:03;97772.59;;;-1.04;100.00
31346;BME280;21711;49.708;18.568;2023-02-04T07:25:31;97780.91;;;-1.09;100.00
31346;BME280;21711;49.708;18.568;2023-02-04T07:27:58;97791.88;;;-1.28;100.00
31346;BME280;21711;49.708;18.568;2023-02-04T07:30:28;97802.84;;;-1.11;100.00
31346;BME280;21711;49.708;18.568;2023-02-04T07:32:56;97818.00;;;-1.15;100.00
31346;BME280;21711;49.708;18.568;2023-02-04T07:35:23;97825.16;;;-1.17;100.00
31346;BME280;21711;49.708;18.568;2023-02-04T07:37:50;97839.38;;;-1.13;100.00
31346;BME280;21711;49.708;18.568;2023-02-04T07:40:18;97849.25;;;-1.23;100.00
31346;BME280;21711;49.708;18.568;2023-02-04T07:42:45;97840.03;;;-1.26;100.00
31346;BME280;21711;49.708;18.568;2023-02-04T07:45:18;97858.28;;;-1.19;100.00
31346;BME280;21711;49.708;18.568;2023-02-04T07:47:46;97876.28;;;-1.33;100.00
31346;BME280;21711;49.708;18.568;2023-02-04T07:50:13;97882.25;;;-1.17;100.00
31346;BME280;21711;49.708;18.568;2023-02-04T07:52:41;97888.59;;;-1.04;100.00
31346;BME280;21711;49.708;18.568;2023-02-04T07:55:08;97879.81;;;-1.03;100.00
31346;BME280;21711;49.708;18.568;2023-02-04T07:57:36;97903.19;;;-1.03;100.00
31346;BME280;21711;49.708;18.568;2023-02-04T08:00:04;97899.03;;;-1.35;100.00
31346;BME280;21711;49.708;18.568;2023-02-04T08:02:38;97915.31;;;-1.26;100.00
31346;BME280;21711;49.708;18.568;2023-02-04T08:05:08;97935.44;;;-1.13;100.00
31346;BME280;21711;49.708;18.568;2023-02-04T08:07:36;97928.25;;;-0.96;100.00
31346;BME280;21711;49.708;18.568;2023-02-04T08:10:05;97946.41;;;-0.96;100.00
31346;BME280;21711;49.708;18.568;2023-02-04T08:12:32;97952.78;;;-0.98;100.00
31346;BME280;21711;49.708;18.568;2023-02-04T08:15:00;97955.56;;;-0.85;100.00
31346;BME280;21711;49.708;18.568;2023-02-04T08:17:27;97968.63;;;-0.78;100.00
31346;BME280;21711;49.708;18.568;2023-02-04T08:19:55;97979.66;;;-0.91;100.00
31346;BME280;21711;49.708;18.568;2023-02-04T08:22:22;97987.81;;;-1.09;100.00
31346;BME280;21711;49.708;18.568;2023-02-04T08:24:52;98003.75;;;-1.12;100.00
31346;BME280;21711;49.708;18.568;2023-02-04T08:27:20;98002.81;;;-1.20;100.00
31346;BME280;21711;49.708;18.568;2023-02-04T08:29:47;98015.38;;;-1.08;100.00
31346;BME280;21711;49.708;18.568;2023-02-04T08:32:15;98025.59;;;-1.07;100.00
31346;BME280;21711;49.708;18.568;2023-02-04T08:34:42;98032.31;;;-0.97;100.00
31346;BME280;21711;49.708;18.568;2023-02-04T08:37:10;98033.19;;;-0.90;100.00
31346;BME280;21711;49.708;18.568;2023-02-04T08:39:37;98029.97;;;-0.77;100.00
31346;BME280;21711;49.708;18.568;2023-02-04T08:42:05;98045.56;;;-0.62;100.00
31346;BME280;21711;49.708;18.568;2023-02-04T08:44:33;98051.00;;;-0.57;100.00
31346;BME280;21711;49.708;18.568;2023-02-04T08:47:00;98062.91;;;-0.47;100.00
31346;BME280;21711;49.708;18.568;2023-02-04T08:49:27;98062.09;;;-0.48;100.00
31346;BME280;21711;49.708;18.568;2023-02-04T08:51:54;98075.00;;;-0.40;100.00
31346;BME280;21711;49.708;18.568;2023-02-04T08:54:22;98085.22;;;-0.23;100.00
31346;BME280;21711;49.708;18.568;2023-02-04T08:56:49;98095.78;;;-0.09;100.00
31346;BME280;21711;49.708;18.568;2023-02-04T08:59:16;98089.94;;;-0.27;100.00
31346;BME280;21711;49.708;18.568;2023-02-04T09:01:43;98098.94;;;-0.44;100.00
31346;BME280;21711;49.708;18.568;2023-02-04T09:04:22;98110.41;;;-0.69;100.00
31346;BME280;21711;49.708;18.568;2023-02-04T09:06:50;98118.22;;;-0.69;100.00
31346;BME280;21711;49.708;18.568;2023-02-04T09:09:18;98116.88;;;-0.64;100.00
31346;BME280;21711;49.708;18.568;2023-02-04T09:11:48;98122.69;;;-0.62;100.00
31346;BME280;21711;49.708;18.568;2023-02-04T09:14:15;98122.53;;;-0.76;100.00
31346;BME280;21711;49.708;18.568;2023-02-04T09:16:43;98145.59;;;-0.81;100.00
31346;BME280;21711;49.708;18.568;2023-02-04T09:19:10;98146.97;;;-0.85;100.00
31346;BME280;21711;49.708;18.568;2023-02-04T09:21:48;98148.19;;;-0.96;100.00
31346;BME280;21711;49.708;18.568;2023-02-04T09:24:17;98173.13;;;-0.72;100.00
31346;BME280;21711;49.708;18.568;2023-02-04T09:26:45;98168.94;;;-0.58;100.00
31346;BME280;21711;49.708;18.568;2023-02-04T09:29:12;98176.56;;;-0.41;100.00
31346;BME280;21711;49.708;18.568;2023-02-04T09:31:42;98177.66;;;-0.20;100.00
31346;BME280;21711;49.708;18.568;2023-02-04T09:34:09;98181.06;;;-0.35;100.00
31346;BME280;21711;49.708;18.568;2023-02-04T09:36:36;98191.94;;;-0.70;100.00
31346;BME280;21711;49.708;18.568;2023-02-04T09:39:08;98213.22;;;-0.36;100.00
31346;BME280;21711;49.708;18.568;2023-02-04T09:41:38;98225.53;;;0.52;100.00
31346;BME280;21711;49.708;18.568;2023-02-04T09:44:17;98225.44;;;1.04;100.00
31346;BME280;21711;49.708;18.568;2023-02-04T09:47:10;98237.22;;;0.42;100.00
31346;BME280;21711;49.708;18.568;2023-02-04T09:49:43;98239.94;;;-0.12;100.00
31346;BME280;21711;49.708;18.568;2023-02-04T09:52:38;98236.91;;;-0.16;100.00
31346;BME280;21711;49.708;18.568;2023-02-04T09:55:13;98246.13;;;-0.13;100.00
31346;BME280;21711;49.708;18.568;2023-02-04T09:57:41;98255.72;;;0.02;100.00
31346;BME280;21711;49.708;18.568;2023-02-04T10:00:22;98250.34;;;0.03;100.00
31346;BME280;21711;49.708;18.568;2023-02-04T10:02:49;98266.97;;;0.17;100.00
31346;BME280;21711;49.708;18.568;2023-02-04T10:05:37;98271.25;;;0.10;100.00
31346;BME280;21711;49.708;18.568;2023-02-04T10:08:05;98273.31;;;-0.01;100.00
31346;BME280;21711;49.708;18.568;2023-02-04T10:10:32;98272.34;;;0.16;100.00
31346;BME280;21711;49.708;18.568;2023-02-04T10:13:02;98273.56;;;0.35;100.00
31346;BME280;21711;49.708;18.568;2023-02-04T10:15:30;98283.72;;;0.82;100.00
31346;BME280;21711;49.708;18.568;2023-02-04T10:18:02;98288.50;;;0.78;100.00
31346;BME280;21711;49.708;18.568;2023-02-04T10:20:31;98293.16;;;1.48;100.00
31346;BME280;21711;49.708;18.568;2023-02-04T10:22:59;98298.22;;;1.78;100.00
31346;BME280;21711;49.708;18.568;2023-02-04T10:25:27;98302.22;;;1.74;100.00
31346;BME280;21711;49.708;18.568;2023-02-04T10:27:59;98303.53;;;2.69;100.00
31346;BME280;21711;49.708;18.568;2023-02-04T10:30:36;98306.72;;;5.38;100.00
31346;BME280;21711;49.708;18.568;2023-02-04T10:33:36;98304.88;;;4.68;100.00
31346;BME280;21711;49.708;18.568;2023-02-04T10:36:05;98304.09;;;3.81;100.00
31346;BME280;21711;49.708;18.568;2023-02-04T10:38:32;98305.69;;;3.75;100.00
31346;BME280;21711;49.708;18.568;2023-02-04T10:41:02;98314.47;;;2.44;100.00
31346;BME280;21711;49.708;18.568;2023-02-04T10:43:31;98309.88;;;1.54;100.00
31346;BME280;21711;49.708;18.568;2023-02-04T10:46:01;98314.78;;;1.42;100.00
31346;BME280;21711;49.708;18.568;2023-02-04T10:48:29;98321.09;;;1.11;100.00
31346;BME280;21711;49.708;18.568;2023-02-04T10:51:05;98318.56;;;4.70;100.00
31346;BME280;21711;49.708;18.568;2023-02-04T10:53:32;98329.53;;;4.46;100.00
31346;BME280;21711;49.708;18.568;2023-02-04T10:56:22;98333.84;;;3.19;100.00
31346;BME280;21711;49.708;18.568;2023-02-04T10:58:50;98330.63;;;3.98;100.00
31346;BME280;21711;49.708;18.568;2023-02-04T11:01:17;98327.94;;;3.03;100.00
31346;BME280;21711;49.708;18.568;2023-02-04T11:03:45;98350.53;;;5.31;100.00
31346;BME280;21711;49.708;18.568;2023-02-04T11:06:22;98343.28;;;8.24;55.58
31346;BME280;21711;49.708;18.568;2023-02-04T11:08:50;98340.38;;;9.49;48.68
31346;BME280;21711;49.708;18.568;2023-02-04T11:11:23;98344.41;;;8.52;48.69
31346;BME280;21711;49.708;18.568;2023-02-04T11:16:29;98334.81;;;6.52;52.84
31346;BME280;21711;49.708;18.568;2023-02-04T11:19:03;98333.47;;;4.76;59.64
31346;BME280;21711;49.708;18.568;2023-02-04T11:32:00;98343.44;;;5.71;51.14
31346;BME280;21711;49.708;18.568;2023-02-04T11:34:30;98362.03;;;4.05;57.67
31346;BME280;21711;49.708;18.568;2023-02-04T11:39:36;98330.75;;;2.11;65.18
31346;BME280;21711;49.708;18.568;2023-02-04T11:44:59;98372.75;;;1.66;69.82
31346;BME280;21711;49.708;18.568;2023-02-04T11:47:34;98372.47;;;3.31;63.71
31346;BME280;21711;49.708;18.568;2023-02-04T11:50:33;98377.06;;;2.66;65.00
31346;BME280;21711;49.708;18.568;2023-02-04T11:53:01;98389.91;;;2.04;68.90
31346;BME280;21711;49.708;18.568;2023-02-04T11:55:33;98373.75;;;1.06;70.23
31346;BME280;21711;49.708;18.568;2023-02-04T11:58:01;98380.91;;;0.52;72.31
31346;BME280;21711;49.708;18.568;2023-02-04T12:00:31;98379.28;;;0.51;73.25
31346;BME280;21711;49.708;18.568;2023-02-04T12:03:03;98405.78;;;1.00;70.22
31346;BME280;21711;49.708;18.568;2023-02-04T12:05:43;98419.25;;;4.01;59.88
31346;BME280;21711;49.708;18.568;2023-02-04T12:11:22;98409.13;;;2.53;64.23
31346;BME280;21711;49.708;18.568;2023-02-04T12:13:56;98415.78;;;1.55;67.47
31346;BME280;21711;49.708;18.568;2023-02-04T12:16:24;98403.41;;;1.42;69.01
31346;BME280;21711;49.708;18.568;2023-02-04T12:18:52;98419.13;;;1.70;70.05
31346;BME280;21711;49.708;18.568;2023-02-04T12:21:19;98430.03;;;1.37;70.01
31346;BME280;21711;49.708;18.568;2023-02-04T12:23:46;98411.31;;;1.12;68.46
31346;BME280;21711;49.708;18.568;2023-02-04T12:26:14;98417.41;;;1.04;70.47
31346;BME280;21711;49.708;18.568;2023-02-04T12:28:41;98425.28;;;1.26;69.95
31346;BME280;21711;49.708;18.568;2023-02-04T12:31:08;98425.03;;;1.21;70.25
31346;BME280;21711;49.708;18.568;2023-02-04T12:33:36;98426.13;;;1.26;72.20
31346;BME280;21711;49.708;18.568;2023-02-04T12:36:03;98429.44;;;1.20;72.94
31346;BME280;21711;49.708;18.568;2023-02-04T12:38:31;98434.31;;;0.63;72.75
31346;BME280;21711;49.708;18.568;2023-02-04T12:40:58;98444.75;;;0.78;73.35
31346;BME280;21711;49.708;18.568;2023-02-04T12:43:25;98438.19;;;0.82;72.41
31346;BME280;21711;49.708;18.568;2023-02-04T12:45:54;98450.75;;;0.94;73.55
31346;BME280;21711;49.708;18.568;2023-02-04T12:48:21;98434.56;;;1.13;73.49
31346;BME280;21711;49.708;18.568;2023-02-04T12:50:49;98451.94;;;0.91;71.81
31346;BME280;21711;49.708;18.568;2023-02-04T12:53:16;98444.03;;;0.99;71.62
31346;BME280;21711;49.708;18.568;2023-02-04T12:55:43;98441.69;;;1.04;71.09
31346;BME280;21711;49.708;18.568;2023-02-04T12:58:11;98444.81;;;1.15;70.89
31346;BME280;21711;49.708;18.568;2023-02-04T13:00:38;98445.91;;;1.42;69.28
31346;BME280;21711;49.708;18.568;2023-02-04T13:03:06;98458.09;;;1.94;68.09
31346;BME280;21711;49.708;18.568;2023-02-04T13:05:33;98459.31;;;1.98;68.31
31346;BME280;21711;49.708;18.568;2023-02-04T13:08:02;98462.19;;;2.32;66.02
31346;BME280;21711;49.708;18.568;2023-02-04T13:10:29;98471.09;;;2.38;67.15
31346;BME280;21711;49.708;18.568;2023-02-04T13:12:56;98460.28;;;2.19;67.52
31346;BME280;21711;49.708;18.568;2023-02-04T13:15:28;98456.03;;;1.67;69.13
31346;BME280;21711;49.708;18.568;2023-02-04T13:17:56;98468.44;;;1.28;70.38